Time;durP1;ratioP1;P1;durP2;ratioP2;P2;SDS_P1;SDS_P2;PMS_P1;PMS_P2;Temp;Humidity;BMP_temperature;BMP_pressure;BME280_temperature;BME280_humidity;BME280_pressure;Samples;Min_cycle;Max_cycle;Signal;HPM_P1;HPM_P2
2021/07/15 00:02:42;;;;;;;;;8.25;8.00;;;;;19.47;83.00;101054.63;5076867;28;45565;-79
2021/07/15 00:05:12;;;;;;;;;10.50;9.50;;;;;19.46;82.71;101052.97;5058749;28;46634;-78
2021/07/15 00:07:38;;;;;;;;;12.00;11.25;;;;;19.40;82.45;101043.75;5076458;28;46051;-77
2021/07/15 00:10:23;;;;;;;;;11.75;10.50;;;;;19.37;83.04;101037.91;5076239;28;45492;-80
2021/07/15 00:12:50;;;;;;;;;10.25;9.50;;;;;19.31;82.64;101030.56;5063096;28;45911;-78
2021/07/15 00:15:20;;;;;;;;;10.50;10.00;;;;;19.41;83.09;101045.41;5081469;28;45621;-78
2021/07/15 00:17:46;;;;;;;;;11.00;10.25;;;;;19.37;82.18;101056.53;5080433;28;46178;-78
2021/07/15 00:20:13;;;;;;;;;12.00;11.25;;;;;19.37;82.75;101033.44;5081228;28;45598;-79
2021/07/15 00:22:40;;;;;;;;;11.50;11.50;;;;;19.36;82.58;101037.09;5079503;28;45653;-79
2021/07/15 00:25:09;;;;;;;;;11.50;11.25;;;;;19.33;82.62;101042.69;5077591;28;45590;-80
2021/07/15 00:27:36;;;;;;;;;10.25;10.00;;;;;19.33;83.22;101052.47;5076630;28;45670;-79
2021/07/15 00:30:01;;;;;;;;;12.50;11.75;;;;;19.25;82.92;101045.31;5076590;28;45680;-79
2021/07/15 00:32:26;;;;;;;;;10.75;10.25;;;;;19.23;82.90;101042.78;5076782;28;45762;-78
2021/07/15 00:34:55;;;;;;;;;13.25;11.50;;;;;19.22;83.14;101051.75;5076893;28;45676;-76
2021/07/15 00:37:20;;;;;;;;;11.25;10.75;;;;;19.20;82.84;101048.44;5076400;28;46076;-79
2021/07/15 00:39:46;;;;;;;;;14.25;12.75;;;;;19.20;82.81;101063.53;5076491;28;45456;-78
2021/07/15 00:42:11;;;;;;;;;10.25;10.00;;;;;19.11;81.55;101043.22;5077303;28;45688;-79
2021/07/15 00:47:58;;;;;;;;;12.50;10.50;;;;;19.04;78.77;101056.25;5067340;28;45910;-79
2021/07/15 00:50:24;;;;;;;;;14.00;13.75;;;;;19.03;78.61;101061.72;5075861;28;45514;-79
2021/07/15 00:52:50;;;;;;;;;11.75;11.25;;;;;18.97;78.31;101049.03;5076409;28;45637;-79
2021/07/15 00:55:25;;;;;;;;;13.50;11.50;;;;;19.02;78.37;101074.16;5076078;28;46300;-79
2021/07/15 00:57:53;;;;;;;;;14.25;12.25;;;;;18.92;77.83;101056.63;5075354;28;46261;-79
2021/07/15 01:00:19;;;;;;;;;14.00;12.50;;;;;18.96;77.41;101065.94;5075877;28;45848;-78
2021/07/15 01:02:45;;;;;;;;;16.25;12.50;;;;;18.92;77.37;101062.78;5077259;28;45716;-79
2021/07/15 01:05:16;;;;;;;;;13.75;13.00;;;;;18.84;77.07;101063.53;5077900;28;45805;-81
2021/07/15 01:07:42;;;;;;;;;12.50;12.00;;;;;18.79;77.06;101059.66;5077896;28;45600;-79
2021/07/15 01:10:09;;;;;;;;;12.50;12.00;;;;;18.81;77.84;101061.19;5079268;28;45599;-79
2021/07/15 01:12:58;;;;;;;;;13.00;11.25;;;;;18.77;76.80;101053.66;5080028;28;45845;-78
2021/07/15 01:15:29;;;;;;;;;12.00;12.00;;;;;18.75;76.46;101059.13;5080125;28;46739;-78
2021/07/15 01:18:03;;;;;;;;;13.75;13.75;;;;;18.72;76.67;101058.59;5080485;28;45658;-80
2021/07/15 01:21:12;;;;;;;;;14.25;13.50;;;;;18.66;76.70;101060.03;5081655;28;45623;-79
2021/07/15 01:23:43;;;;;;;;;13.50;12.25;;;;;18.63;76.86;101062.97;4957353;28;45814;-78
2021/07/15 01:26:14;;;;;;;;;10.00;9.00;;;;;18.62;77.39;101063.16;4960193;28;46652;-79
2021/07/15 01:32:05;;;;;;;;;14.00;13.00;;;;;18.48;77.33;101051.16;4954512;28;45754;-80
2021/07/15 01:34:33;;;;;;;;;14.50;13.50;;;;;18.55;77.34;101062.06;4954197;28;46096;-80
2021/07/15 01:37:00;;;;;;;;;15.50;13.00;;;;;18.50;77.18;101048.38;4954454;28;46924;-80
2021/07/15 01:39:30;;;;;;;;;13.25;13.25;;;;;18.45;76.59;101054.97;4954179;28;46003;-79
2021/07/15 01:42:04;;;;;;;;;14.00;13.00;;;;;18.52;76.64;101071.09;4954174;28;45771;-80
2021/07/15 01:47:52;;;;;;;;;18.50;17.00;;;;;18.49;77.66;101057.31;4953541;28;45755;-77
2021/07/15 01:50:18;;;;;;;;;13.00;12.00;;;;;18.43;77.50;101045.47;4953732;28;45613;-80
2021/07/15 01:52:44;;;;;;;;;16.00;15.00;;;;;18.38;77.14;101039.78;4953682;28;45655;-78
2021/07/15 01:55:11;;;;;;;;;15.00;15.00;;;;;18.46;77.07;101067.22;4953712;28;45915;-78
2021/07/15 01:57:39;;;;;;;;;13.50;13.00;;;;;18.43;77.43;101064.88;4953365;28;48471;-80
2021/07/15 02:03:27;;;;;;;;;15.75;14.50;;;;;18.34;77.63;101051.69;5074895;28;45631;-78
2021/07/15 02:05:53;;;;;;;;;15.00;14.00;;;;;18.35;76.83;101056.81;5075259;28;45825;-78
2021/07/15 02:08:20;;;;;;;;;13.75;12.75;;;;;18.37;77.29;101064.63;5074429;28;45513;-79
2021/07/15 02:10:47;;;;;;;;;16.00;14.25;;;;;18.33;77.27;101045.53;5074636;28;46027;-78
2021/07/15 02:13:12;;;;;;;;;18.00;14.75;;;;;18.28;76.75;101058.41;5074518;28;45631;-78
2021/07/15 02:15:40;;;;;;;;;15.75;14.25;;;;;18.33;77.49;101061.47;5075274;28;45712;-79
2021/07/15 02:18:13;;;;;;;;;17.25;15.50;;;;;18.31;77.23;101058.09;5074486;28;46465;-79
2021/07/15 02:20:40;;;;;;;;;16.25;16.00;;;;;18.26;76.90;101055.06;5074688;28;46090;-78
2021/07/15 02:23:07;;;;;;;;;14.75;13.00;;;;;18.25;77.72;101049.91;5075049;28;45814;-77
2021/07/15 02:25:36;;;;;;;;;14.50;13.50;;;;;18.28;77.27;101060.22;5074807;28;45786;-79
2021/07/15 02:28:02;;;;;;;;;16.00;13.00;;;;;18.27;77.18;101058.56;5074664;28;46692;-80
2021/07/15 02:33:56;;;;;;;;;15.25;14.75;;;;;18.18;77.94;101059.44;5074793;28;45658;-79
2021/07/15 02:36:25;;;;;;;;;16.00;13.75;;;;;18.21;77.50;101054.66;5056467;28;45602;-79
2021/07/15 02:38:52;;;;;;;;;17.50;16.25;;;;;18.18;77.40;101054.13;5081239;28;45964;-78
2021/07/15 02:41:17;;;;;;;;;16.75;14.00;;;;;18.16;77.90;101041.03;5082125;28;46946;-78
2021/07/15 02:43:43;;;;;;;;;15.75;14.50;;;;;18.16;77.29;101050.78;5082270;28;45961;-78
2021/07/15 02:46:08;;;;;;;;;19.25;15.75;;;;;18.17;77.46;101052.47;5082469;28;45515;-78
2021/07/15 02:48:34;;;;;;;;;16.50;14.25;;;;;18.14;77.63;101036.88;5081946;28;45595;-78
2021/07/15 02:50:59;;;;;;;;;15.50;15.50;;;;;18.02;77.46;101017.66;5081501;28;45590;-77
2021/07/15 02:53:24;;;;;;;;;15.00;15.00;;;;;18.10;77.70;101041.59;5076670;28;45678;-78
2021/07/15 02:55:58;;;;;;;;;16.25;14.00;;;;;17.99;78.07;101025.88;5074246;28;45824;-78
2021/07/15 02:58:31;;;;;;;;;15.00;14.00;;;;;18.10;77.07;101040.75;5073730;28;46602;-79
2021/07/15 03:04:36;;;;;;;;;14.50;14.25;;;;;18.07;78.09;101035.78;5074135;28;45678;-78
2021/07/15 03:07:03;;;;;;;;;14.50;14.50;;;;;18.05;78.12;101027.94;5074676;28;45509;-78
2021/07/15 03:09:32;;;;;;;;;15.00;14.50;;;;;18.04;78.15;101032.41;5077595;28;45619;-77
2021/07/15 03:12:20;;;;;;;;;16.75;14.00;;;;;17.97;77.66;101004.00;5077642;28;46412;-79
2021/07/15 03:14:47;;;;;;;;;12.00;12.00;;;;;18.00;78.06;101016.94;5077322;28;45800;-79
2021/07/15 03:17:19;;;;;;;;;16.50;15.50;;;;;17.99;77.33;101025.88;5077300;28;45554;-77
2021/07/15 03:19:49;;;;;;;;;15.25;14.25;;;;;17.80;78.07;100991.50;5077212;28;45605;-78
2021/07/15 03:22:16;;;;;;;;;17.75;14.50;;;;;17.94;78.09;101028.13;5077578;28;46339;-78
2021/07/15 03:24:58;;;;;;;;;15.75;15.00;;;;;17.96;77.88;101037.63;5077465;28;45649;-79
2021/07/15 03:27:25;;;;;;;;;17.75;16.75;;;;;17.97;78.53;101035.81;5077445;28;45593;-78
2021/07/15 03:29:53;;;;;;;;;16.25;15.25;;;;;17.94;77.93;101036.09;5076855;28;47309;-79
2021/07/15 03:32:20;;;;;;;;;16.50;14.00;;;;;17.92;77.99;101024.81;5076957;28;46149;-79
2021/07/15 03:34:45;;;;;;;;;15.00;14.00;;;;;17.92;77.84;101038.06;5077085;28;45553;-79
2021/07/15 03:37:12;;;;;;;;;17.75;16.00;;;;;17.93;78.43;101034.41;5077559;28;45789;-80
2021/07/15 03:39:38;;;;;;;;;14.50;12.75;;;;;17.94;78.21;101041.41;5077170;28;46307;-80
2021/07/15 03:42:04;;;;;;;;;14.00;12.75;;;;;17.95;78.00;101040.41;5077133;28;46151;-79
2021/07/15 03:44:30;;;;;;;;;19.75;16.00;;;;;17.95;78.14;101041.25;5076897;28;45685;-78
2021/07/15 03:46:56;;;;;;;;;16.75;14.25;;;;;17.97;78.49;101046.44;5077377;28;45608;-78
2021/07/15 03:49:26;;;;;;;;;16.25;15.50;;;;;17.85;78.71;101023.72;5076113;28;45684;-80
2021/07/15 03:51:52;;;;;;;;;15.75;15.25;;;;;17.83;78.24;101018.56;5077018;28;46156;-78
2021/07/15 03:54:20;;;;;;;;;19.00;15.50;;;;;17.99;78.27;101037.31;5077207;28;45765;-79
2021/07/15 03:56:46;;;;;;;;;15.25;13.75;;;;;17.93;78.33;101039.72;5077007;28;45729;-79
2021/07/15 03:59:12;;;;;;;;;20.00;16.00;;;;;18.01;78.31;101045.16;5076849;28;45685;-78
2021/07/15 04:01:40;;;;;;;;;17.00;15.50;;;;;17.99;78.02;101053.22;5076892;28;45967;-79
2021/07/15 04:04:08;;;;;;;;;18.00;17.50;;;;;18.02;78.79;101037.06;5076948;28;45771;-79
2021/07/15 04:06:35;;;;;;;;;18.75;16.75;;;;;17.98;78.30;101033.00;5076653;28;45695;-79
2021/07/15 04:09:06;;;;;;;;;16.00;14.50;;;;;18.03;78.61;101038.69;5076616;28;46185;-79
2021/07/15 04:11:33;;;;;;;;;16.75;16.00;;;;;18.06;78.62;101050.00;5076528;28;45872;-78
2021/07/15 04:14:01;;;;;;;;;16.50;16.00;;;;;18.08;78.68;101048.06;5076910;28;45751;-79
2021/07/15 04:19:50;;;;;;;;;18.00;17.00;;;;;18.08;78.76;101040.09;5076097;28;45962;-77
2021/07/15 04:22:15;;;;;;;;;18.75;15.75;;;;;18.11;78.17;101045.94;5076422;28;45583;-79
2021/07/15 04:24:42;;;;;;;;;17.25;16.00;;;;;18.07;78.10;101028.66;5076419;28;45586;-78
2021/07/15 04:27:09;;;;;;;;;15.00;14.75;;;;;18.02;78.17;101033.56;5076686;28;45653;-79
2021/07/15 04:29:39;;;;;;;;;15.50;14.75;;;;;18.14;78.23;101050.94;5076226;28;45550;-79
2021/07/15 04:32:07;;;;;;;;;17.25;14.50;;;;;18.18;78.41;101051.50;5076245;28;46529;-78
2021/07/15 04:34:36;;;;;;;;;17.75;16.00;;;;;18.12;77.97;101052.91;5075487;28;45748;-79
2021/07/15 04:37:03;;;;;;;;;17.75;16.25;;;;;18.17;78.50;101048.00;5076199;28;45517;-78
2021/07/15 04:39:29;;;;;;;;;15.50;14.25;;;;;18.20;78.51;101058.31;5075911;28;45611;-79
2021/07/15 04:41:56;;;;;;;;;18.25;15.50;;;;;18.19;78.12;101053.97;5076278;28;46191;-79
2021/07/15 04:44:23;;;;;;;;;15.00;14.00;;;;;18.21;78.57;101051.19;5076004;28;45610;-78
2021/07/15 04:50:30;;;;;;;;;17.00;15.00;;;;;18.29;78.62;101070.69;5066745;28;45847;-80
2021/07/15 04:53:11;;;;;;;;;15.25;13.00;;;;;18.23;78.45;101055.38;5075944;28;47635;-79
2021/07/15 04:55:38;;;;;;;;;17.75;15.75;;;;;18.32;78.20;101067.75;5075005;28;45714;-79
2021/07/15 04:58:05;;;;;;;;;13.75;12.75;;;;;18.10;77.93;101049.56;5076393;28;45642;-80
2021/07/15 05:00:32;;;;;;;;;17.25;16.00;;;;;18.32;78.01;101064.25;5078609;28;46625;-77
2021/07/15 05:03:21;;;;;;;;;14.25;13.25;;;;;18.27;77.74;101070.00;5079140;28;46099;-79
2021/07/15 05:05:46;;;;;;;;;13.25;12.25;;;;;18.25;77.55;101064.00;5081915;28;45687;-79
2021/07/15 05:08:12;;;;;;;;;14.75;14.75;;;;;18.34;77.80;101075.56;5083069;28;45819;-79
2021/07/15 05:10:37;;;;;;;;;14.00;13.75;;;;;18.35;78.00;101078.03;5080573;28;45596;-79
2021/07/15 05:13:02;;;;;;;;;14.00;14.00;;;;;18.30;78.00;101074.19;5078937;28;45478;-79
2021/07/15 05:15:28;;;;;;;;;14.00;13.50;;;;;18.20;77.83;101041.53;5078170;28;45843;-81
2021/07/15 05:17:54;;;;;;;;;14.50;13.00;;;;;18.41;77.86;101066.00;5077262;28;45649;-79
2021/07/15 05:20:20;;;;;;;;;12.25;12.25;;;;;18.43;77.42;101069.34;5076706;28;46596;-78
2021/07/15 05:22:45;;;;;;;;;13.00;12.00;;;;;18.44;76.94;101068.38;5075601;28;46425;-80
2021/07/15 05:25:11;;;;;;;;;13.50;12.50;;;;;18.44;77.42;101061.25;5075577;28;45645;-79
2021/07/15 05:27:36;;;;;;;;;16.25;15.25;;;;;18.49;76.90;101068.78;5076061;28;45568;-79
2021/07/15 05:36:11;;;;;;;;;15.75;15.00;;;;;18.53;76.76;101064.81;5075190;28;45667;-80
2021/07/15 05:38:38;;;;;;;;;13.50;12.75;;;;;18.49;76.69;101055.50;5075534;28;45561;-79
2021/07/15 05:41:05;;;;;;;;;14.25;13.75;;;;;18.59;76.62;101076.69;5075169;28;46664;-79
2021/07/15 05:43:31;;;;;;;;;10.25;9.75;;;;;18.62;76.50;101087.03;5075216;28;45647;-79
2021/07/15 05:45:57;;;;;;;;;14.25;12.00;;;;;18.63;75.66;101101.94;5073789;28;45814;-80
2021/07/15 05:48:22;;;;;;;;;14.50;13.00;;;;;18.64;76.51;101079.75;5075271;28;45901;-78
2021/07/15 05:50:48;;;;;;;;;14.00;12.50;;;;;18.67;75.63;101092.72;5074356;28;47286;-79
2021/07/15 05:53:13;;;;;;;;;14.50;13.75;;;;;18.64;76.18;101090.34;5074823;28;46119;-78
2021/07/15 05:55:38;;;;;;;;;14.75;13.00;;;;;18.70;76.01;101087.09;5075171;28;46137;-79
2021/07/15 05:58:04;;;;;;;;;13.25;13.25;;;;;18.65;76.40;101078.75;5074933;28;45861;-78
2021/07/15 06:00:29;;;;;;;;;11.50;11.00;;;;;18.73;75.82;101086.81;5075106;28;46275;-79
2021/07/15 06:02:55;;;;;;;;;15.00;13.75;;;;;18.72;75.51;101086.00;5075357;28;45588;-79
2021/07/15 06:05:21;;;;;;;;;14.00;14.00;;;;;18.71;76.10;101084.31;5075041;28;45726;-80
2021/07/15 06:07:47;;;;;;;;;13.75;12.50;;;;;18.69;75.54;101085.44;5074973;28;45718;-78
2021/07/15 06:10:12;;;;;;;;;17.00;14.50;;;;;18.81;75.67;101089.56;5075264;28;45509;-77
2021/07/15 06:12:37;;;;;;;;;12.00;12.00;;;;;18.76;75.43;101082.03;5075435;28;45822;-79
2021/07/15 06:15:04;;;;;;;;;13.75;12.00;;;;;18.83;75.92;101096.41;5075117;28;45442;-79
2021/07/15 06:20:51;;;;;;;;;15.25;14.75;;;;;18.79;75.41;101087.03;5074099;28;45947;-77
2021/07/15 06:23:17;;;;;;;;;14.75;14.25;;;;;18.85;75.91;101096.22;5074915;28;45679;-79
2021/07/15 06:25:42;;;;;;;;;18.00;15.75;;;;;18.86;75.36;101081.97;5074367;28;45649;-78
2021/07/15 06:28:07;;;;;;;;;14.75;13.75;;;;;18.85;75.51;101098.88;5074692;28;45814;-78
2021/07/15 06:30:33;;;;;;;;;16.50;14.75;;;;;18.81;74.72;101093.03;5074825;28;46489;-79
2021/07/15 06:36:20;;;;;;;;;16.50;15.50;;;;;18.89;75.39;101097.63;5074042;28;45701;-75
2021/07/15 06:38:47;;;;;;;;;17.25;16.00;;;;;18.91;75.90;101121.34;5055934;28;45816;-75
2021/07/15 06:41:13;;;;;;;;;15.75;14.25;;;;;18.95;75.68;101104.16;5074508;28;45727;-74
2021/07/15 06:43:39;;;;;;;;;16.50;15.75;;;;;18.97;75.22;101113.63;5076829;28;45541;-76
2021/07/15 06:46:05;;;;;;;;;15.00;14.50;;;;;18.94;75.66;101110.44;5078134;28;45716;-76
2021/07/15 06:48:31;;;;;;;;;17.25;16.25;;;;;19.00;76.16;101110.66;5059270;28;45951;-74
2021/07/15 06:50:57;;;;;;;;;16.00;14.50;;;;;19.00;76.03;101134.53;5077348;28;45591;-75
2021/07/15 06:53:22;;;;;;;;;15.00;14.00;;;;;18.90;75.68;101117.00;5077827;28;45604;-77
2021/07/15 06:55:48;;;;;;;;;9.00;8.50;;;;;19.03;75.45;101120.16;5077779;28;45671;-76
2021/07/15 06:58:14;;;;;;;;;16.50;13.25;;;;;19.01;75.51;101112.31;5077383;28;45718;-76
2021/07/15 07:00:40;;;;;;;;;12.25;12.25;;;;;19.00;75.43;101126.56;5077736;28;46170;-75
2021/07/15 07:06:26;;;;;;;;;14.50;14.00;;;;;19.10;74.86;101118.56;5077005;28;45602;-76
2021/07/15 07:08:51;;;;;;;;;17.25;15.00;;;;;19.09;75.14;101108.91;5077652;28;45522;-75
2021/07/15 07:11:17;;;;;;;;;13.75;13.50;;;;;19.12;75.24;101105.94;5076581;28;45575;-75
2021/07/15 07:13:42;;;;;;;;;13.00;12.75;;;;;19.12;75.54;101106.78;5080043;28;45936;-76
2021/07/15 07:16:07;;;;;;;;;15.75;13.75;;;;;19.19;75.18;101120.28;5080604;28;45586;-75
2021/07/15 07:21:56;;;;;;;;;14.25;13.75;;;;;19.22;75.18;101114.66;5079416;28;46046;-74
2021/07/15 07:24:21;;;;;;;;;13.75;12.50;;;;;19.26;75.28;101105.44;5078694;28;47657;-77
2021/07/15 07:26:48;;;;;;;;;12.25;10.75;;;;;19.29;74.92;101105.09;5078502;28;45513;-78
2021/07/15 07:29:13;;;;;;;;;14.00;13.00;;;;;19.34;74.39;101115.28;5077174;28;45591;-74
2021/07/15 07:31:38;;;;;;;;;12.75;12.50;;;;;19.37;74.30;101133.59;5076800;28;45615;-77
2021/07/15 07:34:04;;;;;;;;;12.25;11.00;;;;;19.38;73.55;101106.03;5077031;28;45808;-74
2021/07/15 07:36:29;;;;;;;;;12.50;11.50;;;;;19.36;74.14;101102.69;5076053;28;45521;-78
2021/07/15 07:38:56;;;;;;;;;12.50;11.75;;;;;19.36;74.57;101090.22;5077390;28;45661;-79
2021/07/15 07:41:21;;;;;;;;;13.00;13.00;;;;;19.47;74.49;101108.63;5076853;28;46762;-81
2021/07/15 07:43:47;;;;;;;;;11.75;10.00;;;;;19.48;74.38;101118.28;5076184;28;46011;-81
2021/07/15 07:46:12;;;;;;;;;13.00;12.75;;;;;19.56;74.43;101106.84;5076304;28;45667;-79
2021/07/15 07:52:00;;;;;;;;;10.50;10.00;;;;;19.62;74.19;101107.06;5065565;28;45671;-79
2021/07/15 07:54:25;;;;;;;;;11.75;10.25;;;;;19.68;74.16;101118.91;5076207;28;45555;-80
2021/07/15 07:56:51;;;;;;;;;12.25;11.50;;;;;19.66;73.77;101105.75;5077216;28;45637;-79
2021/07/15 07:59:16;;;;;;;;;10.50;9.75;;;;;19.77;73.87;101109.16;5076386;28;45782;-80
2021/07/15 08:01:42;;;;;;;;;10.75;9.75;;;;;19.81;73.88;101121.16;5077006;28;45633;-82
2021/07/15 08:07:29;;;;;;;;;13.75;12.75;;;;;19.90;73.57;101109.59;5075736;28;45647;-84
2021/07/15 08:09:54;;;;;;;;;12.75;11.50;;;;;19.97;73.11;101113.28;5076794;28;45660;-84
2021/07/15 08:12:20;;;;;;;;;9.00;6.50;;;;;20.01;72.84;101104.00;5058930;28;47660;-85
2021/07/15 08:14:46;;;;;;;;;9.25;9.25;;;;;20.11;72.76;101102.91;5078778;28;45662;-86
2021/07/15 08:17:12;;;;;;;;;9.25;8.75;;;;;20.16;72.57;101128.19;5076987;28;45732;-81
2021/07/15 08:19:38;;;;;;;;;9.50;8.50;;;;;20.20;72.63;101117.06;5076898;28;45772;-82
2021/07/15 08:22:04;;;;;;;;;9.75;9.75;;;;;20.23;72.50;101106.13;5076682;28;45879;-79
2021/07/15 08:24:29;;;;;;;;;9.00;9.00;;;;;20.30;71.75;101128.41;5077230;28;45618;-83
2021/07/15 08:26:55;;;;;;;;;9.25;9.00;;;;;20.36;71.62;101119.00;5076678;28;45654;-80
2021/07/15 08:29:20;;;;;;;;;8.50;8.50;;;;;20.37;72.18;101094.88;5076814;28;45813;-80
2021/07/15 08:31:46;;;;;;;;;10.00;9.00;;;;;20.43;72.05;101104.91;5076758;28;45723;-79
2021/07/15 08:37:34;;;;;;;;;11.00;9.50;;;;;20.54;71.82;101103.78;5075610;28;45717;-77
2021/07/15 08:40:01;;;;;;;;;13.75;12.00;;;;;20.58;71.80;101094.47;5076574;28;45512;-78
2021/07/15 08:42:27;;;;;;;;;8.25;8.25;;;;;20.63;72.05;101092.13;5075589;28;45504;-79
2021/07/15 08:44:53;;;;;;;;;8.50;8.00;;;;;20.55;71.69;101064.66;5076399;28;46339;-79
2021/07/15 08:47:20;;;;;;;;;10.00;9.75;;;;;20.70;71.40;101113.63;5075972;28;45691;-78
2021/07/15 08:49:45;;;;;;;;;11.50;11.00;;;;;20.74;71.53;101093.66;5075836;28;45686;-79
2021/07/15 08:52:15;;;;;;;;;10.50;10.50;;;;;20.79;71.41;101104.66;5075603;28;45862;-78
2021/07/15 08:57:22;;;;;;;;;7.00;7.00;;;;;20.88;69.61;101095.72;5075169;28;45824;-78
2021/07/15 08:59:48;;;;;;;;;11.00;10.00;;;;;20.94;70.64;101097.72;5075566;28;45772;-79
2021/07/15 09:02:22;;;;;;;;;10.50;7.50;;;;;20.99;70.50;101086.56;5075351;28;46183;-79
2021/07/15 09:08:09;;;;;;;;;9.25;8.50;;;;;21.05;70.43;101076.09;5075159;28;45773;-79
2021/07/15 09:10:34;;;;;;;;;7.25;7.00;;;;;21.18;70.75;101119.09;5075975;28;45722;-80
2021/07/15 09:13:01;;;;;;;;;11.00;10.00;;;;;21.19;70.53;101096.78;5075457;28;45611;-80
2021/07/15 09:15:26;;;;;;;;;10.00;10.00;;;;;21.27;70.26;101093.25;5075353;28;46017;-79
2021/07/15 09:17:52;;;;;;;;;10.00;9.50;;;;;21.33;70.06;101093.44;5075225;28;45608;-80
2021/07/15 09:20:26;;;;;;;;;10.00;9.00;;;;;21.38;69.08;101098.25;5075410;28;45680;-80
2021/07/15 09:22:59;;;;;;;;;10.00;10.00;;;;;21.47;68.41;101093.78;5075422;28;46469;-80
2021/07/15 09:25:26;;;;;;;;;10.25;10.00;;;;;21.53;69.46;101101.94;5075478;28;46190;-78
2021/07/15 09:27:52;;;;;;;;;9.00;9.00;;;;;21.59;69.49;101095.91;5075252;28;45696;-80
2021/07/15 09:30:18;;;;;;;;;12.00;11.75;;;;;21.60;69.33;101081.59;5075300;28;45595;-79
2021/07/15 09:33:03;;;;;;;;;11.50;11.50;;;;;21.71;68.31;101105.25;5075403;28;45641;-78
2021/07/15 09:35:39;;;;;;;;;8.50;8.50;;;;;21.76;68.14;101099.41;5075248;28;46356;-79
2021/07/15 09:38:11;;;;;;;;;10.00;9.50;;;;;21.81;68.33;101099.72;5074474;28;45693;-77
2021/07/15 09:40:38;;;;;;;;;10.25;10.25;;;;;21.89;67.21;101107.72;5075115;28;45851;-80
2021/07/15 09:43:18;;;;;;;;;10.00;9.00;;;;;21.98;65.51;101105.88;5075210;28;45648;-81
2021/07/15 09:45:45;;;;;;;;;10.50;10.50;;;;;21.99;66.87;101103.06;5075127;28;46309;-79
2021/07/15 09:48:16;;;;;;;;;10.75;8.75;;;;;22.07;66.79;101113.72;5075063;28;45647;-79
2021/07/15 09:50:42;;;;;;;;;10.00;9.00;;;;;22.12;66.36;101108.69;5075151;28;45539;-79
2021/07/15 09:53:18;;;;;;;;;9.00;9.00;;;;;22.22;66.59;101121.84;5074709;28;46266;-78
2021/07/15 09:55:43;;;;;;;;;9.50;8.75;;;;;22.28;66.41;101112.31;5074588;28;47055;-81
2021/07/15 09:58:11;;;;;;;;;9.25;9.00;;;;;22.33;66.57;101116.13;5076063;28;45654;-81
2021/07/15 10:00:44;;;;;;;;;10.00;8.00;;;;;22.39;66.89;101109.28;5073989;28;45748;-78
2021/07/15 10:03:14;;;;;;;;;11.25;10.75;;;;;22.36;66.72;101094.41;5074206;28;47401;-79
2021/07/15 10:05:54;;;;;;;;;10.00;9.00;;;;;22.53;64.69;101161.94;5075003;28;45973;-80
2021/07/15 10:08:28;;;;;;;;;9.00;8.75;;;;;22.56;63.40;101117.00;5074841;28;45673;-78
2021/07/15 10:11:12;;;;;;;;;9.75;9.75;;;;;22.60;63.77;101122.84;5074602;28;45602;-78
2021/07/15 10:13:38;;;;;;;;;10.00;9.00;;;;;22.62;64.02;101112.81;5074248;28;47515;-79
2021/07/15 10:16:08;;;;;;;;;9.25;9.00;;;;;22.65;64.13;101125.00;5074818;28;46251;-80
2021/07/15 10:18:38;;;;;;;;;6.75;6.75;;;;;22.68;61.58;101114.78;5074420;28;45555;-82
2021/07/15 10:21:06;;;;;;;;;9.25;8.75;;;;;22.74;63.30;101129.31;5074320;28;45658;-79
2021/07/15 10:23:33;;;;;;;;;9.00;9.00;;;;;22.78;64.06;101125.31;5056253;28;47981;-77
2021/07/15 10:26:00;;;;;;;;;10.25;9.50;;;;;22.84;61.49;101128.09;5076000;28;46749;-80
2021/07/15 10:28:27;;;;;;;;;10.00;9.00;;;;;22.85;62.90;101103.03;5075183;28;45492;-82
2021/07/15 10:30:54;;;;;;;;;9.25;8.00;;;;;22.84;63.24;101090.69;5074728;28;45932;-81
2021/07/15 10:33:20;;;;;;;;;8.00;8.00;;;;;22.98;63.67;101105.13;5074910;28;45751;-80
2021/07/15 10:39:14;;;;;;;;;10.00;9.00;;;;;23.08;63.01;101119.09;5073995;28;45721;-80
2021/07/15 10:41:45;;;;;;;;;9.75;9.00;;;;;23.07;63.17;101105.91;5075622;28;45545;-81
2021/07/15 10:44:12;;;;;;;;;9.00;9.00;;;;;23.17;63.21;101117.19;5075034;28;45684;-79
2021/07/15 10:46:39;;;;;;;;;9.75;9.00;;;;;23.20;62.85;101115.00;5076742;28;46493;-82
2021/07/15 10:49:08;;;;;;;;;10.50;9.25;;;;;23.25;63.35;101112.63;5075110;28;45582;-81
2021/07/15 10:51:36;;;;;;;;;10.00;10.00;;;;;23.30;63.38;101120.94;5075656;28;45635;-79
2021/07/15 10:54:03;;;;;;;;;10.00;10.00;;;;;23.35;63.28;101117.72;5076979;28;45571;-82
2021/07/15 10:56:29;;;;;;;;;8.50;8.25;;;;;23.33;62.49;101111.72;5080214;28;45939;-79
2021/07/15 10:58:55;;;;;;;;;8.50;8.50;;;;;23.38;61.37;101115.50;5078193;28;45572;-80
2021/07/15 11:01:40;;;;;;;;;9.25;8.25;;;;;23.43;60.94;101129.19;5080990;28;45391;-80
2021/07/15 11:04:16;;;;;;;;;8.00;8.00;;;;;23.51;60.82;101133.66;5081735;28;45689;-82
2021/07/15 11:06:45;;;;;;;;;7.75;7.25;;;;;23.53;61.57;101117.44;5081330;28;45788;-82
2021/07/15 11:09:30;;;;;;;;;7.25;6.25;;;;;23.62;61.36;101116.34;5058958;28;45668;-81
2021/07/15 11:11:57;;;;;;;;;10.50;9.00;;;;;23.68;60.97;101123.66;5075093;28;45847;-83
2021/07/15 11:14:35;;;;;;;;;7.75;7.00;;;;;23.74;61.24;101114.91;5075433;28;45880;-83
2021/07/15 11:17:22;;;;;;;;;8.00;8.00;;;;;23.80;60.75;101108.81;5076155;28;45830;-80
2021/07/15 11:20:02;;;;;;;;;10.00;7.00;;;;;23.84;61.22;101104.75;5074137;28;45680;-80
2021/07/15 11:22:47;;;;;;;;;10.75;10.00;;;;;23.89;61.19;101126.47;5074565;28;45632;-81
2021/07/15 11:25:18;;;;;;;;;8.75;7.00;;;;;23.94;61.00;101115.19;5074359;28;45838;-80
2021/07/15 11:27:49;;;;;;;;;8.00;8.00;;;;;23.92;60.16;101106.50;5056025;28;47721;-81
2021/07/15 11:30:28;;;;;;;;;7.75;7.75;;;;;24.01;57.82;101129.53;5077704;28;45594;-82
2021/07/15 11:32:56;;;;;;;;;9.25;9.25;;;;;24.08;59.64;101115.19;5078587;28;45690;-81
2021/07/15 11:35:28;;;;;;;;;9.25;8.00;;;;;24.02;59.56;101126.63;5078509;28;45654;-81
2021/07/15 11:38:11;;;;;;;;;8.00;8.00;;;;;24.18;59.36;101117.66;5078346;28;47725;-82
2021/07/15 11:40:37;;;;;;;;;7.75;7.75;;;;;24.22;58.10;101146.56;5077981;28;45521;-82
2021/07/15 11:43:55;;;;;;;;;8.25;7.50;;;;;24.25;59.22;101124.75;5078443;28;45791;-81
2021/07/15 11:46:37;;;;;;;;;6.00;6.00;;;;;24.29;57.05;101114.50;5052191;28;45661;-81
2021/07/15 11:52:20;;;;;;;;;7.00;7.00;;;;;24.35;58.68;101126.28;5077148;28;45629;-81
2021/07/15 11:54:48;;;;;;;;;7.75;6.75;;;;;24.38;56.88;101121.41;5077545;28;45734;-81
2021/07/15 11:57:14;;;;;;;;;7.00;6.75;;;;;24.42;57.50;101137.94;5076318;28;46860;-81
2021/07/15 11:59:51;;;;;;;;;4.50;4.00;;;;;24.40;57.15;101118.56;5078453;28;46065;-81
2021/07/15 12:02:28;;;;;;;;;7.75;7.75;;;;;24.50;58.02;101119.94;5077665;28;45532;-80
2021/07/15 12:08:16;;;;;;;;;8.25;8.25;;;;;24.58;56.77;101117.13;5078533;28;46144;-81
2021/07/15 12:10:53;;;;;;;;;3.75;3.75;;;;;24.57;57.77;101131.53;5074615;28;45600;-82
2021/07/15 12:13:18;;;;;;;;;8.25;7.50;;;;;24.61;58.16;101145.41;5074416;28;45661;-82
2021/07/15 12:15:46;;;;;;;;;7.75;7.00;;;;;24.59;57.65;101115.28;5073906;28;45750;-82
2021/07/15 12:18:18;;;;;;;;;6.00;6.00;;;;;24.61;57.24;101121.31;5058386;28;47407;-85
2021/07/15 12:24:16;;;;;;;;;8.00;8.00;;;;;24.71;56.93;101121.00;5076501;28;45719;-82
2021/07/15 12:26:43;;;;;;;;;7.75;7.75;;;;;24.75;56.61;101133.00;5058428;28;45676;-79
2021/07/15 12:29:13;;;;;;;;;7.00;7.00;;;;;24.70;57.03;101117.47;5076333;28;46315;-80
2021/07/15 12:31:39;;;;;;;;;6.75;6.00;;;;;24.82;56.52;101131.22;5076237;28;45926;-80
2021/07/15 12:34:07;;;;;;;;;7.00;7.00;;;;;24.83;56.06;101143.63;5075752;28;45774;-78
2021/07/15 12:39:58;;;;;;;;;7.50;7.50;;;;;24.82;55.00;101163.41;5075599;28;46029;-78
2021/07/15 12:42:24;;;;;;;;;7.75;7.75;;;;;24.82;55.62;101150.00;5075888;28;45734;-76